sensor_id;sensor_type;location;lat;lon;timestamp;pressure;altitude;pressure_sealevel;temperature;humidity
37304;BME280;23188;51.188;16.374;2023-05-02T00:01:15;99917.63;;;12.81;89.07
37304;BME280;23188;51.188;16.374;2023-05-02T00:05:17;99919.95;;;12.78;89.67
37304;BME280;23188;51.188;16.374;2023-05-02T00:09:19;99926.52;;;12.80;89.75
37304;BME280;23188;51.188;16.374;2023-05-02T00:13:21;99928.40;;;12.78;91.83
37304;BME280;23188;51.188;16.374;2023-05-02T00:17:23;99921.68;;;12.80;91.96
37304;BME280;23188;51.188;16.374;2023-05-02T00:21:25;99923.01;;;12.83;90.87
37304;BME280;23188;51.188;16.374;2023-05-02T00:25:29;99925.73;;;12.93;90.45
37304;BME280;23188;51.188;16.374;2023-05-02T00:29:31;99920.05;;;13.06;90.50
37304;BME280;23188;51.188;16.374;2023-05-02T00:33:33;99911.43;;;13.18;90.41
37304;BME280;23188;51.188;16.374;2023-05-02T00:37:35;99906.80;;;13.21;89.77
37304;BME280;23188;51.188;16.374;2023-05-02T00:41:38;99905.27;;;13.28;88.82
37304;BME280;23188;51.188;16.374;2023-05-02T00:45:41;99904.75;;;13.39;88.48
37304;BME280;23188;51.188;16.374;2023-05-02T00:49:49;99908.37;;;13.53;87.29
37304;BME280;23188;51.188;16.374;2023-05-02T00:53:51;99914.27;;;13.65;88.05
37304;BME280;23188;51.188;16.374;2023-05-02T00:57:54;99919.84;;;13.64;89.54
37304;BME280;23188;51.188;16.374;2023-05-02T01:02:29;99919.94;;;13.67;89.55
37304;BME280;23188;51.188;16.374;2023-05-02T01:06:48;99924.44;;;13.75;89.25
37304;BME280;23188;51.188;16.374;2023-05-02T01:11:26;99930.94;;;13.80;88.90
37304;BME280;23188;51.188;16.374;2023-05-02T01:15:31;99939.30;;;13.86;88.20
37304;BME280;23188;51.188;16.374;2023-05-02T01:19:38;99942.69;;;13.89;88.64
37304;BME280;23188;51.188;16.374;2023-05-02T01:23:59;99955.06;;;13.90;89.34
37304;BME280;23188;51.188;16.374;2023-05-02T01:32:28;99958.00;;;14.03;88.35
37304;BME280;23188;51.188;16.374;2023-05-02T01:36:35;99964.21;;;14.13;88.27
37304;BME280;23188;51.188;16.374;2023-05-02T01:40:39;99968.85;;;14.16;88.17
37304;BME280;23188;51.188;16.374;2023-05-02T01:44:43;99971.33;;;14.16;87.10
37304;BME280;23188;51.188;16.374;2023-05-02T01:48:47;99970.34;;;14.10;86.99
37304;BME280;23188;51.188;16.374;2023-05-02T01:52:52;99970.40;;;14.02;85.36
37304;BME280;23188;51.188;16.374;2023-05-02T01:56:56;99966.75;;;14.02;83.10
37304;BME280;23188;51.188;16.374;2023-05-02T02:00:59;99973.73;;;14.07;80.38
37304;BME280;23188;51.188;16.374;2023-05-02T02:05:04;99970.89;;;14.06;79.60
37304;BME280;23188;51.188;16.374;2023-05-02T02:09:06;99976.02;;;14.03;80.39
37304;BME280;23188;51.188;16.374;2023-05-02T02:13:33;99981.01;;;14.00;80.47
37304;BME280;23188;51.188;16.374;2023-05-02T02:17:42;99985.50;;;14.03;80.16
37304;BME280;23188;51.188;16.374;2023-05-02T02:21:47;99987.13;;;14.01;81.71
37304;BME280;23188;51.188;16.374;2023-05-02T02:25:51;99982.14;;;13.96;83.31
37304;BME280;23188;51.188;16.374;2023-05-02T02:29:53;99992.59;;;13.94;84.91
37304;BME280;23188;51.188;16.374;2023-05-02T02:33:55;100005.63;;;13.94;86.58
37304;BME280;23188;51.188;16.374;2023-05-02T02:42:15;100011.06;;;13.84;90.17
37304;BME280;23188;51.188;16.374;2023-05-02T02:46:54;100020.20;;;13.84;92.75
37304;BME280;23188;51.188;16.374;2023-05-02T02:51:31;100023.88;;;13.77;95.27
37304;BME280;23188;51.188;16.374;2023-05-02T02:55:44;100029.18;;;13.70;96.42
37304;BME280;23188;51.188;16.374;2023-05-02T02:59:57;100034.65;;;13.66;97.89
37304;BME280;23188;51.188;16.374;2023-05-02T03:04:01;100041.10;;;13.52;99.71
37304;BME280;23188;51.188;16.374;2023-05-02T03:08:07;100046.40;;;13.51;99.92
37304;BME280;23188;51.188;16.374;2023-05-02T03:12:09;100050.85;;;13.53;100.00
37304;BME280;23188;51.188;16.374;2023-05-02T03:16:32;100051.66;;;13.54;100.00
37304;BME280;23188;51.188;16.374;2023-05-02T03:20:37;100062.88;;;13.47;100.00
37304;BME280;23188;51.188;16.374;2023-05-02T03:24:39;100070.52;;;13.14;100.00
37304;BME280;23188;51.188;16.374;2023-05-02T03:28:42;100074.81;;;12.86;100.00
37304;BME280;23188;51.188;16.374;2023-05-02T03:32:48;100073.73;;;12.73;100.00
37304;BME280;23188;51.188;16.374;2023-05-02T03:36:50;100073.20;;;12.69;100.00
37304;BME280;23188;51.188;16.374;2023-05-02T03:40:56;100064.84;;;12.75;100.00
37304;BME280;23188;51.188;16.374;2023-05-02T03:44:58;100071.96;;;12.77;100.00
37304;BME280;23188;51.188;16.374;2023-05-02T03:49:01;100074.27;;;12.84;100.00
37304;BME280;23188;51.188;16.374;2023-05-02T03:53:03;100079.94;;;12.89;100.00
37304;BME280;23188;51.188;16.374;2023-05-02T03:57:05;100084.09;;;12.97;100.00
37304;BME280;23188;51.188;16.374;2023-05-02T04:01:13;100086.73;;;13.15;100.00
37304;BME280;23188;51.188;16.374;2023-05-02T04:05:19;100095.02;;;13.28;100.00
37304;BME280;23188;51.188;16.374;2023-05-02T04:09:21;100103.80;;;13.38;100.00
37304;BME280;23188;51.188;16.374;2023-05-02T04:13:27;100103.70;;;13.38;100.00
37304;BME280;23188;51.188;16.374;2023-05-02T04:17:29;100111.73;;;13.38;100.00
37304;BME280;23188;51.188;16.374;2023-05-02T04:21:35;100116.50;;;13.37;100.00
37304;BME280;23188;51.188;16.374;2023-05-02T04:25:38;100117.33;;;13.34;100.00
37304;BME280;23188;51.188;16.374;2023-05-02T04:29:40;100124.13;;;13.39;100.00
37304;BME280;23188;51.188;16.374;2023-05-02T04:33:42;100124.88;;;13.39;100.00
37304;BME280;23188;51.188;16.374;2023-05-02T04:37:43;100131.23;;;13.41;100.00
37304;BME280;23188;51.188;16.374;2023-05-02T04:41:45;100130.86;;;13.45;100.00
37304;BME280;23188;51.188;16.374;2023-05-02T04:45:47;100136.51;;;13.53;100.00
37304;BME280;23188;51.188;16.374;2023-05-02T04:49:49;100139.03;;;13.61;100.00
37304;BME280;23188;51.188;16.374;2023-05-02T04:53:51;100146.02;;;13.71;100.00
37304;BME280;23188;51.188;16.374;2023-05-02T04:57:54;100149.85;;;13.81;100.00
37304;BME280;23188;51.188;16.374;2023-05-02T05:01:56;100150.48;;;13.95;100.00
37304;BME280;23188;51.188;16.374;2023-05-02T05:05:58;100155.58;;;14.05;100.00
37304;BME280;23188;51.188;16.374;2023-05-02T05:10:00;100161.92;;;14.15;100.00
37304;BME280;23188;51.188;16.374;2023-05-02T05:14:03;100166.48;;;14.28;100.00
37304;BME280;23188;51.188;16.374;2023-05-02T05:18:05;100167.58;;;14.41;100.00
37304;BME280;23188;51.188;16.374;2023-05-02T05:22:07;100174.60;;;14.56;100.00
37304;BME280;23188;51.188;16.374;2023-05-02T05:26:13;100179.95;;;14.74;100.00
37304;BME280;23188;51.188;16.374;2023-05-02T05:30:19;100185.48;;;14.94;100.00
37304;BME280;23188;51.188;16.374;2023-05-02T05:34:21;100188.66;;;15.14;100.00
37304;BME280;23188;51.188;16.374;2023-05-02T05:38:23;100191.38;;;15.31;100.00
37304;BME280;23188;51.188;16.374;2023-05-02T05:42:25;100195.94;;;15.46;100.00
37304;BME280;23188;51.188;16.374;2023-05-02T05:46:27;100203.05;;;15.60;100.00
37304;BME280;23188;51.188;16.374;2023-05-02T05:50:29;100205.95;;;15.75;100.00
37304;BME280;23188;51.188;16.374;2023-05-02T05:54:31;100207.41;;;15.89;100.00
37304;BME280;23188;51.188;16.374;2023-05-02T05:58:33;100217.55;;;15.99;99.99
37304;BME280;23188;51.188;16.374;2023-05-02T06:02:34;100225.66;;;16.19;99.09
37304;BME280;23188;51.188;16.374;2023-05-02T06:06:37;100229.72;;;16.35;97.86
37304;BME280;23188;51.188;16.374;2023-05-02T06:10:39;100230.13;;;16.46;93.93
37304;BME280;23188;51.188;16.374;2023-05-02T06:14:44;100232.96;;;16.52;89.78
37304;BME280;23188;51.188;16.374;2023-05-02T06:18:49;100241.55;;;16.70;90.60
37304;BME280;23188;51.188;16.374;2023-05-02T06:22:51;100246.02;;;16.82;89.51
37304;BME280;23188;51.188;16.374;2023-05-02T06:26:53;100249.45;;;16.90;88.87
37304;BME280;23188;51.188;16.374;2023-05-02T06:31:01;100253.93;;;16.93;88.17
37304;BME280;23188;51.188;16.374;2023-05-02T06:35:04;100254.80;;;16.95;88.32
37304;BME280;23188;51.188;16.374;2023-05-02T06:39:07;100262.04;;;16.98;86.89
37304;BME280;23188;51.188;16.374;2023-05-02T06:43:11;100265.84;;;17.07;87.84
37304;BME280;23188;51.188;16.374;2023-05-02T06:47:13;100262.71;;;17.11;85.58
37304;BME280;23188;51.188;16.374;2023-05-02T06:51:16;100267.59;;;17.13;86.21
37304;BME280;23188;51.188;16.374;2023-05-02T06:55:20;100268.17;;;17.25;83.76
37304;BME280;23188;51.188;16.374;2023-05-02T06:59:22;100272.86;;;17.29;81.73
37304;BME280;23188;51.188;16.374;2023-05-02T07:03:25;100277.82;;;17.34;81.37
37304;BME280;23188;51.188;16.374;2023-05-02T07:07:28;100281.60;;;17.32;80.18
37304;BME280;23188;51.188;16.374;2023-05-02T07:11:31;100285.92;;;17.25;81.78
37304;BME280;23188;51.188;16.374;2023-05-02T07:15:34;100291.89;;;17.35;82.27
37304;BME280;23188;51.188;16.374;2023-05-02T07:19:36;100296.94;;;17.35;80.47
37304;BME280;23188;51.188;16.374;2023-05-02T07:23:38;100298.21;;;17.34;80.76
37304;BME280;23188;51.188;16.374;2023-05-02T07:27:41;100309.34;;;17.36;81.28
37304;BME280;23188;51.188;16.374;2023-05-02T07:31:44;100310.29;;;17.49;80.86
37304;BME280;23188;51.188;16.374;2023-05-02T07:35:47;100315.70;;;17.51;79.23
37304;BME280;23188;51.188;16.374;2023-05-02T07:39:51;100314.28;;;17.32;78.27
37304;BME280;23188;51.188;16.374;2023-05-02T07:43:54;100316.57;;;17.30;80.95
37304;BME280;23188;51.188;16.374;2023-05-02T07:48:02;100320.59;;;17.18;80.60
37304;BME280;23188;51.188;16.374;2023-05-02T07:52:05;100321.73;;;16.99;78.51
37304;BME280;23188;51.188;16.374;2023-05-02T07:56:08;100328.13;;;17.06;79.85
37304;BME280;23188;51.188;16.374;2023-05-02T08:00:11;100332.49;;;17.07;80.04
37304;BME280;23188;51.188;16.374;2023-05-02T08:04:14;100333.50;;;17.10;79.35
37304;BME280;23188;51.188;16.374;2023-05-02T08:08:17;100338.16;;;17.29;80.30
37304;BME280;23188;51.188;16.374;2023-05-02T08:12:19;100342.26;;;17.43;79.02
37304;BME280;23188;51.188;16.374;2023-05-02T08:16:21;100350.56;;;17.69;82.07
37304;BME280;23188;51.188;16.374;2023-05-02T08:20:23;100352.02;;;17.89;75.19
37304;BME280;23188;51.188;16.374;2023-05-02T08:24:25;100354.01;;;17.94;74.05
37304;BME280;23188;51.188;16.374;2023-05-02T08:28:28;100355.45;;;18.14;75.55
37304;BME280;23188;51.188;16.374;2023-05-02T08:32:31;100360.33;;;18.39;77.28
37304;BME280;23188;51.188;16.374;2023-05-02T08:36:33;100365.02;;;18.62;78.39
37304;BME280;23188;51.188;16.374;2023-05-02T08:40:37;100368.77;;;18.86;78.11
37304;BME280;23188;51.188;16.374;2023-05-02T08:44:43;100364.64;;;19.05;74.99
37304;BME280;23188;51.188;16.374;2023-05-02T08:48:45;100374.33;;;19.20;74.53
37304;BME280;23188;51.188;16.374;2023-05-02T08:52:55;100378.70;;;19.22;72.41
37304;BME280;23188;51.188;16.374;2023-05-02T08:56:58;100376.50;;;19.49;73.50
37304;BME280;23188;51.188;16.374;2023-05-02T09:01:03;100380.45;;;19.59;69.26
37304;BME280;23188;51.188;16.374;2023-05-02T09:05:11;100384.35;;;19.67;70.36
37304;BME280;23188;51.188;16.374;2023-05-02T09:09:13;100391.27;;;19.77;72.01
37304;BME280;23188;51.188;16.374;2023-05-02T09:13:29;100389.21;;;19.79;69.78
37304;BME280;23188;51.188;16.374;2023-05-02T09:17:43;100397.88;;;19.78;71.66
37304;BME280;23188;51.188;16.374;2023-05-02T09:21:46;100398.13;;;19.91;71.08
37304;BME280;23188;51.188;16.374;2023-05-02T09:25:48;100403.55;;;19.97;70.11
37304;BME280;23188;51.188;16.374;2023-05-02T09:30:20;100411.02;;;19.96;69.97
37304;BME280;23188;51.188;16.374;2023-05-02T09:34:22;100411.81;;;20.08;69.66
37304;BME280;23188;51.188;16.374;2023-05-02T09:38:25;100417.59;;;20.17;69.11
37304;BME280;23188;51.188;16.374;2023-05-02T09:42:30;100420.79;;;20.23;69.89
37304;BME280;23188;51.188;16.374;2023-05-02T09:46:41;100426.59;;;20.21;68.60
37304;BME280;23188;51.188;16.374;2023-05-02T09:50:44;100432.72;;;20.03;68.90
37304;BME280;23188;51.188;16.374;2023-05-02T09:54:46;100433.84;;;19.86;66.68
37304;BME280;23188;51.188;16.374;2023-05-02T09:58:51;100438.50;;;19.66;67.46
37304;BME280;23188;51.188;16.374;2023-05-02T10:03:15;100439.95;;;19.54;67.33
37304;BME280;23188;51.188;16.374;2023-05-02T10:07:18;100449.88;;;19.53;69.11
37304;BME280;23188;51.188;16.374;2023-05-02T10:11:20;100448.42;;;19.56;70.61
37304;BME280;23188;51.188;16.374;2023-05-02T10:15:24;100452.39;;;19.78;72.05
37304;BME280;23188;51.188;16.374;2023-05-02T10:19:56;100448.02;;;19.94;70.41
37304;BME280;23188;51.188;16.374;2023-05-02T10:24:01;100450.08;;;20.02;68.84
37304;BME280;23188;51.188;16.374;2023-05-02T10:28:06;100453.34;;;20.01;70.37
37304;BME280;23188;51.188;16.374;2023-05-02T10:32:10;100449.31;;;20.16;70.20
37304;BME280;23188;51.188;16.374;2023-05-02T10:36:13;100454.54;;;20.42;69.94
37304;BME280;23188;51.188;16.374;2023-05-02T10:40:17;100453.48;;;20.49;67.49
37304;BME280;23188;51.188;16.374;2023-05-02T10:44:36;100457.38;;;20.53;68.35
37304;BME280;23188;51.188;16.374;2023-05-02T10:48:38;100461.05;;;20.52;67.15
37304;BME280;23188;51.188;16.374;2023-05-02T10:52:40;100462.45;;;20.48;65.96
37304;BME280;23188;51.188;16.374;2023-05-02T11:05:29;100458.05;;;20.78;66.18
37304;BME280;23188;51.188;16.374;2023-05-02T11:09:32;100461.86;;;20.77;67.24
37304;BME280;23188;51.188;16.374;2023-05-02T11:13:48;100457.66;;;20.86;65.34
37304;BME280;23188;51.188;16.374;2023-05-02T11:18:00;100460.20;;;20.77;64.20
37304;BME280;23188;51.188;16.374;2023-05-02T11:22:38;100465.16;;;20.70;62.06
37304;BME280;23188;51.188;16.374;2023-05-02T11:32:05;100477.10;;;20.63;58.26
37304;BME280;23188;51.188;16.374;2023-05-02T11:36:14;100480.36;;;20.49;57.91
37304;BME280;23188;51.188;16.374;2023-05-02T11:40:39;100480.58;;;20.60;59.50
37304;BME280;23188;51.188;16.374;2023-05-02T11:44:56;100484.48;;;20.70;59.43
37304;BME280;23188;51.188;16.374;2023-05-02T11:49:05;100489.51;;;20.85;58.78
37304;BME280;23188;51.188;16.374;2023-05-02T11:53:28;100495.92;;;20.89;57.72
37304;BME280;23188;51.188;16.374;2023-05-02T11:57:34;100493.96;;;20.83;57.08
37304;BME280;23188;51.188;16.374;2023-05-02T12:01:49;100496.16;;;20.71;57.20
37304;BME280;23188;51.188;16.374;2023-05-02T12:05:55;100496.31;;;20.72;58.97
37304;BME280;23188;51.188;16.374;2023-05-02T12:10:21;100500.70;;;20.75;57.72
37304;BME280;23188;51.188;16.374;2023-05-02T12:14:28;100499.18;;;20.54;57.93
37304;BME280;23188;51.188;16.374;2023-05-02T12:19:07;100504.36;;;20.62;58.85
37304;BME280;23188;51.188;16.374;2023-05-02T12:23:23;100507.55;;;20.73;60.72
37304;BME280;23188;51.188;16.374;2023-05-02T12:27:34;100511.70;;;20.76;61.45
37304;BME280;23188;51.188;16.374;2023-05-02T12:31:50;100507.89;;;20.76;58.14
37304;BME280;23188;51.188;16.374;2023-05-02T12:36:06;100511.62;;;20.70;58.07
37304;BME280;23188;51.188;16.374;2023-05-02T12:40:18;100511.11;;;20.75;59.76
37304;BME280;23188;51.188;16.374;2023-05-02T12:44:39;100512.77;;;20.59;59.06
37304;BME280;23188;51.188;16.374;2023-05-02T12:53:38;100512.02;;;20.63;58.50
37304;BME280;23188;51.188;16.374;2023-05-02T12:57:41;100515.94;;;20.72;58.35
37304;BME280;23188;51.188;16.374;2023-05-02T13:01:43;100519.21;;;20.91;58.01
37304;BME280;23188;51.188;16.374;2023-05-02T13:05:45;100516.00;;;20.85;58.24
37304;BME280;23188;51.188;16.374;2023-05-02T13:09:47;100522.61;;;20.80;60.98
37304;BME280;23188;51.188;16.374;2023-05-02T13:13:49;100524.21;;;20.54;58.49
37304;BME280;23188;51.188;16.374;2023-05-02T13:17:51;100518.27;;;20.60;60.62
37304;BME280;23188;51.188;16.374;2023-05-02T13:21:53;100526.35;;;20.50;57.07
37304;BME280;23188;51.188;16.374;2023-05-02T13:25:55;100522.23;;;20.41;59.33
37304;BME280;23188;51.188;16.374;2023-05-02T13:29:56;100523.45;;;20.41;60.59
37304;BME280;23188;51.188;16.374;2023-05-02T13:33:58;100525.33;;;20.31;57.15
37304;BME280;23188;51.188;16.374;2023-05-02T13:38:00;100526.81;;;20.41;58.36
37304;BME280;23188;51.188;16.374;2023-05-02T13:42:02;100530.26;;;20.59;60.50
37304;BME280;23188;51.188;16.374;2023-05-02T13:46:07;100535.59;;;20.48;58.72
37304;BME280;23188;51.188;16.374;2023-05-02T13:50:09;100534.06;;;20.43;58.18
37304;BME280;23188;51.188;16.374;2023-05-02T13:54:10;100538.42;;;20.46;61.44
37304;BME280;23188;51.188;16.374;2023-05-02T13:58:13;100540.44;;;20.53;62.33
37304;BME280;23188;51.188;16.374;2023-05-02T14:02:15;100544.03;;;20.48;59.26
37304;BME280;23188;51.188;16.374;2023-05-02T14:06:17;100544.05;;;20.63;60.66
37304;BME280;23188;51.188;16.374;2023-05-02T14:10:19;100552.44;;;20.49;59.03
37304;BME280;23188;51.188;16.374;2023-05-02T14:14:20;100553.39;;;20.27;59.97
37304;BME280;23188;51.188;16.374;2023-05-02T14:18:22;100554.41;;;20.07;61.32
37304;BME280;23188;51.188;16.374;2023-05-02T14:22:24;100558.31;;;20.06;60.36
37304;BME280;23188;51.188;16.374;2023-05-02T14:26:25;100559.13;;;20.09;58.30
37304;BME280;23188;51.188;16.374;2023-05-02T14:30:27;100569.39;;;20.01;58.89
37304;BME280;23188;51.188;16.374;2023-05-02T14:34:29;100571.75;;;19.95;63.02
37304;BME280;23188;51.188;16.374;2023-05-02T14:38:31;100573.61;;;19.88;62.27
37304;BME280;23188;51.188;16.374;2023-05-02T14:42:32;100579.95;;;19.76;62.53
37304;BME280;23188;51.188;16.374;2023-05-02T14:46:34;100586.70;;;19.65;61.84
37304;BME280;23188;51.188;16.374;2023-05-02T14:50:36;100587.94;;;19.52;62.06
37304;BME280;23188;51.188;16.374;2023-05-02T14:54:39;100584.94;;;19.25;60.91
37304;BME280;23188;51.188;16.374;2023-05-02T14:58:41;100586.91;;;18.99;64.19
37304;BME280;23188;51.188;16.374;2023-05-02T15:02:43;100591.32;;;18.87;63.23
37304;BME280;23188;51.188;16.374;2023-05-02T15:06:45;100595.61;;;18.77;64.11
37304;BME280;23188;51.188;16.374;2023-05-02T15:10:48;100599.19;;;18.59;66.12
37304;BME280;23188;51.188;16.374;2023-05-02T15:14:50;100602.36;;;18.55;65.45
37304;BME280;23188;51.188;16.374;2023-05-02T15:18:54;100603.75;;;18.56;66.12
37304;BME280;23188;51.188;16.374;2023-05-02T15:22:56;100607.05;;;18.58;66.80
37304;BME280;23188;51.188;16.374;2023-05-02T15:27:03;100612.20;;;18.57;67.10
37304;BME280;23188;51.188;16.374;2023-05-02T15:31:05;100616.86;;;18.49;66.47
37304;BME280;23188;51.188;16.374;2023-05-02T15:35:07;100621.43;;;18.43;67.69
37304;BME280;23188;51.188;16.374;2023-05-02T15:39:09;100624.23;;;18.43;68.44
37304;BME280;23188;51.188;16.374;2023-05-02T15:43:11;100623.97;;;18.33;67.05
37304;BME280;23188;51.188;16.374;2023-05-02T15:47:13;100630.19;;;18.22;67.33
37304;BME280;23188;51.188;16.374;2023-05-02T15:51:16;100632.55;;;18.14;67.86
37304;BME280;23188;51.188;16.374;2023-05-02T15:55:19;100634.38;;;18.15;68.26
37304;BME280;23188;51.188;16.374;2023-05-02T15:59:20;100638.63;;;18.07;68.52
37304;BME280;23188;51.188;16.374;2023-05-02T16:03:23;100644.95;;;17.98;68.69
37304;BME280;23188;51.188;16.374;2023-05-02T16:07:25;100648.52;;;17.85;68.54
37304;BME280;23188;51.188;16.374;2023-05-02T16:11:27;100651.34;;;17.83;69.49
37304;BME280;23188;51.188;16.374;2023-05-02T16:15:29;100654.27;;;17.86;70.48
37304;BME280;23188;51.188;16.374;2023-05-02T16:19:32;100657.86;;;17.83;70.46
37304;BME280;23188;51.188;16.374;2023-05-02T16:23:34;100664.48;;;17.80;70.60
37304;BME280;23188;51.188;16.374;2023-05-02T16:27:36;100666.14;;;17.69;70.56
37304;BME280;23188;51.188;16.374;2023-05-02T16:31:37;100666.42;;;17.65;70.39
37304;BME280;23188;51.188;16.374;2023-05-02T16:35:39;100668.74;;;17.58;69.45
37304;BME280;23188;51.188;16.374;2023-05-02T16:39:41;100670.65;;;17.52;68.33
37304;BME280;23188;51.188;16.374;2023-05-02T16:43:44;100675.20;;;17.54;69.28
37304;BME280;23188;51.188;16.374;2023-05-02T16:47:45;100678.35;;;17.53;69.85
37304;BME280;23188;51.188;16.374;2023-05-02T16:51:47;100678.03;;;17.48;70.36
37304;BME280;23188;51.188;16.374;2023-05-02T16:55:52;100681.52;;;17.39;70.64
37304;BME280;23188;51.188;16.374;2023-05-02T16:59:54;100685.14;;;17.23;69.85
37304;BME280;23188;51.188;16.374;2023-05-02T17:03:56;100690.98;;;17.09;70.64
37304;BME280;23188;51.188;16.374;2023-05-02T17:07:59;100695.83;;;16.91;71.08
37304;BME280;23188;51.188;16.374;2023-05-02T17:12:00;100701.68;;;16.83;71.67
37304;BME280;23188;51.188;16.374;2023-05-02T17:16:04;100707.45;;;16.72;72.63
37304;BME280;23188;51.188;16.374;2023-05-02T17:20:06;100714.34;;;16.65;73.98
37304;BME280;23188;51.188;16.374;2023-05-02T17:24:08;100717.06;;;16.51;75.06
37304;BME280;23188;51.188;16.374;2023-05-02T17:28:10;100725.09;;;16.40;74.75
37304;BME280;23188;51.188;16.374;2023-05-02T17:32:12;100729.58;;;16.36;74.72
37304;BME280;23188;51.188;16.374;2023-05-02T17:36:16;100736.11;;;16.34;74.35
37304;BME280;23188;51.188;16.374;2023-05-02T17:40:18;100737.89;;;16.30;74.62
37304;BME280;23188;51.188;16.374;2023-05-02T17:44:19;100739.86;;;16.27;75.19
37304;BME280;23188;51.188;16.374;2023-05-02T17:48:22;100742.52;;;16.21;73.97
37304;BME280;23188;51.188;16.374;2023-05-02T17:52:24;100750.68;;;16.19;73.64
37304;BME280;23188;51.188;16.374;2023-05-02T17:56:26;100756.56;;;16.13;75.02
37304;BME280;23188;51.188;16.374;2023-05-02T18:00:28;100758.35;;;16.04;76.59
37304;BME280;23188;51.188;16.374;2023-05-02T18:04:30;100764.38;;;15.97;75.97
37304;BME280;23188;51.188;16.374;2023-05-02T18:08:32;100777.90;;;15.96;75.82
37304;BME280;23188;51.188;16.374;2023-05-02T18:12:34;100780.37;;;15.92;73.97
37304;BME280;23188;51.188;16.374;2023-05-02T18:16:36;100789.44;;;15.89;74.60
37304;BME280;23188;51.188;16.374;2023-05-02T18:20:38;100795.48;;;15.86;74.91
37304;BME280;23188;51.188;16.374;2023-05-02T18:24:41;100806.48;;;15.77;76.15
37304;BME280;23188;51.188;16.374;2023-05-02T18:28:43;100808.96;;;15.68;76.91
37304;BME280;23188;51.188;16.374;2023-05-02T18:32:46;100814.86;;;15.58;77.35
37304;BME280;23188;51.188;16.374;2023-05-02T18:36:49;100828.73;;;15.28;78.71
37304;BME280;23188;51.188;16.374;2023-05-02T18:40:51;100836.57;;;14.92;84.29
37304;BME280;23188;51.188;16.374;2023-05-02T18:44:53;100844.62;;;14.65;88.12
37304;BME280;23188;51.188;16.374;2023-05-02T18:48:55;100852.50;;;14.49;91.13
37304;BME280;23188;51.188;16.374;2023-05-02T18:52:57;100852.93;;;14.42;92.86
37304;BME280;23188;51.188;16.374;2023-05-02T18:56:59;100854.56;;;14.31;92.36
37304;BME280;23188;51.188;16.374;2023-05-02T19:01:13;100860.67;;;14.27;93.38
37304;BME280;23188;51.188;16.374;2023-05-02T19:05:16;100873.48;;;14.25;93.86
37304;BME280;23188;51.188;16.374;2023-05-02T19:09:17;100878.98;;;14.20;93.46
37304;BME280;23188;51.188;16.374;2023-05-02T19:13:20;100886.84;;;14.07;93.31
37304;BME280;23188;51.188;16.374;2023-05-02T19:17:22;100888.70;;;13.96;94.24
37304;BME280;23188;51.188;16.374;2023-05-02T19:21:27;100895.52;;;13.93;94.56
37304;BME280;23188;51.188;16.374;2023-05-02T19:25:28;100898.36;;;13.83;94.67
37304;BME280;23188;51.188;16.374;2023-05-02T19:29:30;100903.73;;;13.78;94.42
37304;BME280;23188;51.188;16.374;2023-05-02T19:33:32;100905.08;;;13.77;94.36
37304;BME280;23188;51.188;16.374;2023-05-02T19:37:33;100914.36;;;13.68;95.84
37304;BME280;23188;51.188;16.374;2023-05-02T19:41:35;100921.60;;;13.65;97.16
37304;BME280;23188;51.188;16.374;2023-05-02T19:45:37;100928.34;;;13.63;97.55
37304;BME280;23188;51.188;16.374;2023-05-02T19:49:41;100927.83;;;13.59;97.92
37304;BME280;23188;51.188;16.374;2023-05-02T19:53:44;100934.16;;;13.62;97.88
37304;BME280;23188;51.188;16.374;2023-05-02T19:57:45;100936.77;;;13.67;97.73
37304;BME280;23188;51.188;16.374;2023-05-02T20:01:48;100939.92;;;13.72;99.74
37304;BME280;23188;51.188;16.374;2023-05-02T20:05:50;100945.02;;;13.66;99.95
37304;BME280;23188;51.188;16.374;2023-05-02T20:09:53;100952.02;;;13.66;99.67
37304;BME280;23188;51.188;16.374;2023-05-02T20:13:54;100956.20;;;13.60;99.69
37304;BME280;23188;51.188;16.374;2023-05-02T20:17:56;100964.05;;;13.56;100.00
37304;BME280;23188;51.188;16.374;2023-05-02T20:22:00;100970.78;;;13.54;100.00
37304;BME280;23188;51.188;16.374;2023-05-02T20:26:02;100972.55;;;13.52;100.00
37304;BME280;23188;51.188;16.374;2023-05-02T20:30:06;100977.27;;;13.53;100.00
37304;BME280;23188;51.188;16.374;2023-05-02T20:34:09;100979.86;;;13.57;100.00
37304;BME280;23188;51.188;16.374;2023-05-02T20:38:10;100982.42;;;13.64;100.00
37304;BME280;23188;51.188;16.374;2023-05-02T20:42:13;100983.58;;;13.68;100.00
37304;BME280;23188;51.188;16.374;2023-05-02T20:46:18;100987.89;;;13.69;99.75
37304;BME280;23188;51.188;16.374;2023-05-02T20:50:20;100991.04;;;13.68;99.16
37304;BME280;23188;51.188;16.374;2023-05-02T20:54:26;100992.42;;;13.64;99.61
37304;BME280;23188;51.188;16.374;2023-05-02T20:58:28;100995.96;;;13.64;99.41
37304;BME280;23188;51.188;16.374;2023-05-02T21:02:30;101000.54;;;13.72;98.85
37304;BME280;23188;51.188;16.374;2023-05-02T21:06:32;101004.49;;;13.80;97.78
37304;BME280;23188;51.188;16.374;2023-05-02T21:10:35;101007.42;;;13.90;97.66
37304;BME280;23188;51.188;16.374;2023-05-02T21:14:37;101006.88;;;13.98;96.89
37304;BME280;23188;51.188;16.374;2023-05-02T21:18:40;101008.81;;;14.01;96.29
37304;BME280;23188;51.188;16.374;2023-05-02T21:22:42;101012.55;;;14.05;95.90
37304;BME280;23188;51.188;16.374;2023-05-02T21:26:44;101015.73;;;14.09;95.74
37304;BME280;23188;51.188;16.374;2023-05-02T21:30:46;101016.98;;;14.11;94.98